AFR600 TFFR-TFFF
Flight info
| Callsign | AFR600 |
|---|---|
| Flight time | N/A |
| Altitude | 23000 |
| Route | KATIM2R KATIM DCT KAREX DCT FOF DCT |
| Aircraft | A320/M-SDE3FGHIRWY/LB1 |
Departure
| Time | 2026-04-22 18:09 |
|---|---|
| Airport | Maryse Condé International Airport (TFFR) |
Arrival
| Time | N/A |
|---|---|
| Airport | Martinique Aimé Césaire International Airport (TFFF) |
| Time | Latitude | Longitude | Altitude | Speed | Heading |
|---|---|---|---|---|---|
| 2026-04-22 17:44 | 16.26911 | -61.52726 | 24 ft | 0 kts | 31° |
| 2026-04-22 18:02 | 16.26910 | -61.52727 | 23 ft | 2 kts | 31° |
| 2026-04-22 18:02 | 16.26889 | -61.52740 | 25 ft | 4 kts | 31° |
| 2026-04-22 18:02 | 16.26870 | -61.52752 | 25 ft | 3 kts | 32° |
| 2026-04-22 18:02 | 16.26849 | -61.52768 | 25 ft | 4 kts | 52° |
| 2026-04-22 18:03 | 16.26837 | -61.52792 | 23 ft | 4 kts | 90° |
| 2026-04-22 18:03 | 16.26838 | -61.52802 | 23 ft | 0 kts | 101° |
| 2026-04-22 18:05 | 16.26837 | -61.52800 | 23 ft | 3 kts | 101° |
| 2026-04-22 18:06 | 16.26851 | -61.52728 | 40 ft | 17 kts | 75° |
| 2026-04-22 18:06 | 16.26850 | -61.52604 | 26 ft | 17 kts | 108° |
| 2026-04-22 18:06 | 16.26804 | -61.52496 | 23 ft | 16 kts | 118° |
| 2026-04-22 18:06 | 16.26780 | -61.52387 | 24 ft | 15 kts | 101° |
| 2026-04-22 18:07 | 16.26759 | -61.52282 | 25 ft | 15 kts | 105° |
| 2026-04-22 18:07 | 16.26711 | -61.52196 | 24 ft | 13 kts | 146° |
| 2026-04-22 18:07 | 16.26632 | -61.52187 | 26 ft | 8 kts | 188° |
| 2026-04-22 18:07 | 16.26581 | -61.52198 | 31 ft | 13 kts | 193° |
| 2026-04-22 18:08 | 16.26482 | -61.52217 | 37 ft | 12 kts | 191° |
| 2026-04-22 18:08 | 16.26421 | -61.52230 | 39 ft | 7 kts | 191° |
| 2026-04-22 18:08 | 16.26362 | -61.52253 | 39 ft | 15 kts | 232° |
| 2026-04-22 18:08 | 16.26374 | -61.52364 | 37 ft | 17 kts | 281° |
| 2026-04-22 18:09 | 16.26436 | -61.52688 | 28 ft | 85 kts | 282° |
| 2026-04-22 18:09 | 16.26596 | -61.53524 | 27 ft | 147 kts | 281° |
| 2026-04-22 18:09 | 16.26825 | -61.54728 | 254 ft | 176 kts | 281° |
| 2026-04-22 18:09 | 16.27034 | -61.55908 | 1238 ft | 161 kts | 283° |
| 2026-04-22 18:10 | 16.27240 | -61.57041 | 2102 ft | 160 kts | 283° |
| 2026-04-22 18:10 | 16.27464 | -61.58245 | 2596 ft | 180 kts | 282° |
| 2026-04-22 18:10 | 16.27718 | -61.59608 | 3004 ft | 203 kts | 282° |
| 2026-04-22 18:10 | 16.27964 | -61.61139 | 3381 ft | 225 kts | 271° |
| 2026-04-22 18:11 | 16.27495 | -61.62741 | 3809 ft | 246 kts | 231° |
| 2026-04-22 18:11 | 16.26075 | -61.63754 | 4425 ft | 261 kts | 195° |
| 2026-04-22 18:11 | 16.24241 | -61.63702 | 5130 ft | 272 kts | 159° |
| 2026-04-22 18:11 | 16.22720 | -61.62545 | 6022 ft | 277 kts | 127° |
| 2026-04-22 18:12 | 16.21741 | -61.60802 | 6949 ft | 281 kts | 115° |
| 2026-04-22 18:12 | 16.20930 | -61.58937 | 7842 ft | 285 kts | 114° |
| 2026-04-22 18:12 | 16.20390 | -61.57687 | 8439 ft | 288 kts | 114° |
| 2026-04-22 18:12 | 16.19282 | -61.55119 | 9611 ft | 294 kts | 114° |
| 2026-04-22 18:13 | 16.18329 | -61.53206 | 10271 ft | 306 kts | 120° |
| 2026-04-22 18:13 | 16.17131 | -61.51272 | 10550 ft | 330 kts | 124° |
| 2026-04-22 18:13 | 16.15760 | -61.49270 | 10915 ft | 348 kts | 126° |
| 2026-04-22 18:13 | 16.14166 | -61.47350 | 11544 ft | 355 kts | 138° |
| 2026-04-22 18:14 | 16.12144 | -61.45846 | 12248 ft | 360 kts | 151° |
| 2026-04-22 18:14 | 16.09826 | -61.44817 | 12971 ft | 364 kts | 164° |
| 2026-04-22 18:14 | 16.07324 | -61.44346 | 13660 ft | 368 kts | 177° |
| 2026-04-22 18:14 | 16.04756 | -61.44188 | 14300 ft | 372 kts | 178° |
| 2026-04-22 18:15 | 16.02163 | -61.44041 | 14933 ft | 375 kts | 178° |
| 2026-04-22 18:15 | 15.99547 | -61.43897 | 15565 ft | 378 kts | 178° |
| 2026-04-22 18:15 | 15.96906 | -61.43753 | 16177 ft | 382 kts | 179° |
| 2026-04-22 18:15 | 15.94245 | -61.43608 | 16785 ft | 385 kts | 179° |
| 2026-04-22 18:16 | 15.91558 | -61.43460 | 17390 ft | 389 kts | 179° |
| 2026-04-22 18:16 | 15.88847 | -61.43310 | 17977 ft | 392 kts | 179° |
| 2026-04-22 18:16 | 15.86142 | -61.43162 | 18523 ft | 395 kts | 179° |
| 2026-04-22 18:16 | 15.83347 | -61.43010 | 19046 ft | 399 kts | 179° |
| 2026-04-22 18:17 | 15.80569 | -61.42857 | 19571 ft | 402 kts | 180° |
| 2026-04-22 18:17 | 15.77771 | -61.42702 | 20094 ft | 405 kts | 180° |
| 2026-04-22 18:17 | 15.74945 | -61.42543 | 20618 ft | 408 kts | 180° |
| 2026-04-22 18:17 | 15.72099 | -61.42382 | 21143 ft | 411 kts | 180° |
| 2026-04-22 18:18 | 15.69231 | -61.42221 | 21667 ft | 414 kts | 180° |
| 2026-04-22 18:18 | 15.66346 | -61.42059 | 22178 ft | 417 kts | 180° |
| 2026-04-22 18:18 | 15.63435 | -61.41895 | 22674 ft | 420 kts | 180° |
| 2026-04-22 18:18 | 15.60502 | -61.41729 | 23209 ft | 423 kts | 180° |
| 2026-04-22 18:19 | 15.57551 | -61.41562 | 23659 ft | 427 kts | 180° |
| 2026-04-22 18:19 | 15.54578 | -61.41396 | 24053 ft | 429 kts | 180° |
| 2026-04-22 18:19 | 15.51631 | -61.41232 | 24446 ft | 431 kts | 181° |
| 2026-04-22 18:19 | 15.48626 | -61.41067 | 24868 ft | 433 kts | 180° |
| 2026-04-22 18:20 | 15.45613 | -61.40899 | 25252 ft | 435 kts | 180° |
| 2026-04-22 18:20 | 15.42579 | -61.40728 | 25641 ft | 437 kts | 180° |
| 2026-04-22 18:20 | 15.39534 | -61.40542 | 26015 ft | 440 kts | 178° |
| 2026-04-22 18:20 | 15.36483 | -61.40104 | 26396 ft | 444 kts | 175° |
| 2026-04-22 18:21 | 15.33421 | -61.39634 | 26720 ft | 446 kts | 175° |
| 2026-04-22 18:21 | 15.30300 | -61.39157 | 27092 ft | 448 kts | 175° |
| 2026-04-22 18:21 | 15.27209 | -61.38686 | 27445 ft | 450 kts | 175° |
| 2026-04-22 18:21 | 15.24148 | -61.38221 | 27789 ft | 452 kts | 175° |
| 2026-04-22 18:22 | 15.21030 | -61.37747 | 28133 ft | 454 kts | 175° |
| 2026-04-22 18:22 | 15.17900 | -61.37270 | 28469 ft | 456 kts | 175° |
| 2026-04-22 18:22 | 15.14756 | -61.36793 | 28800 ft | 458 kts | 175° |
| 2026-04-22 18:22 | 15.11600 | -61.36315 | 28944 ft | 458 kts | 175° |
| 2026-04-22 18:23 | 15.08444 | -61.35835 | 28969 ft | 458 kts | 175° |
| 2026-04-22 18:23 | 15.02139 | -61.34872 | 28973 ft | 458 kts | 175° |
| 2026-04-22 18:24 | 14.92686 | -61.33433 | 28978 ft | 458 kts | 175° |
| 2026-04-22 18:25 | 14.83236 | -61.31999 | 28977 ft | 458 kts | 175° |
| 2026-04-22 18:25 | 14.76939 | -61.31039 | 28974 ft | 455 kts | 175° |
| 2026-04-22 18:26 | 14.70929 | -61.30112 | 28969 ft | 418 kts | 175° |
| 2026-04-22 18:26 | 14.68099 | -61.29676 | 28969 ft | 405 kts | 175° |
| 2026-04-22 18:26 | 14.62587 | -61.28848 | 28969 ft | 398 kts | 175° |
| 2026-04-22 18:27 | 14.57174 | -61.27664 | 28970 ft | 405 kts | 155° |
| 2026-04-22 18:27 | 14.54942 | -61.25868 | 28964 ft | 414 kts | 131° |
| 2026-04-22 18:27 | 14.53531 | -61.23268 | 28966 ft | 420 kts | 108° |
| 2026-04-22 18:28 | 14.53186 | -61.20281 | 28958 ft | 423 kts | 84° |
| 2026-04-22 18:28 | 14.53946 | -61.17366 | 28960 ft | 423 kts | 64° |
| 2026-04-22 18:28 | 14.54874 | -61.15294 | 28952 ft | 424 kts | 64° |